Time;durP1;ratioP1;P1;durP2;ratioP2;P2;SDS_P1;SDS_P2;PMS_P1;PMS_P2;Temp;Humidity;BMP_temperature;BMP_pressure;BME280_temperature;BME280_humidity;BME280_pressure;Samples;Min_cycle;Max_cycle;Signal;HPM_P1;HPM_P2
2022/04/18 00:01:19;;;;;;;6.28;4.10;;;;;;;7.27;100.00;101063.53;5032742;28;20478;-73
2022/04/18 00:04:05;;;;;;;4.75;3.90;;;;;;;7.55;100.00;101057.47;5032973;28;20112;-75
2022/04/18 00:06:51;;;;;;;4.05;3.33;;;;;;;7.56;100.00;101061.81;5032706;28;20029;-73
2022/04/18 00:09:37;;;;;;;5.63;3.75;;;;;;;7.49;100.00;101064.41;5032432;28;20025;-75
2022/04/18 00:12:23;;;;;;;4.95;3.45;;;;;;;7.50;100.00;101055.72;5033174;28;20065;-74
2022/04/18 00:15:09;;;;;;;4.60;3.60;;;;;;;7.29;100.00;101037.47;5032431;28;20473;-73
2022/04/18 00:17:55;;;;;;;5.22;3.83;;;;;;;7.67;100.00;101046.19;5032752;28;20075;-74
2022/04/18 00:20:40;;;;;;;4.25;3.40;;;;;;;7.56;100.00;101066.16;5033107;28;20122;-75
2022/04/18 00:23:26;;;;;;;4.80;3.20;;;;;;;7.29;100.00;101067.03;5033029;28;20037;-73
2022/04/18 00:26:12;;;;;;;4.32;2.72;;;;;;;7.16;100.00;101062.63;5033923;28;20088;-75
2022/04/18 00:28:58;;;;;;;5.47;2.90;;;;;;;7.21;100.00;101047.91;5033508;28;20033;-77
2022/04/18 00:31:44;;;;;;;4.80;3.33;;;;;;;7.18;100.00;101060.03;5032264;28;20357;-75
2022/04/18 00:34:32;;;;;;;3.45;3.00;;;;;;;6.96;100.00;101058.25;5032771;28;20048;-74
2022/04/18 00:37:18;;;;;;;4.68;2.90;;;;;;;7.14;100.00;101055.69;5032665;28;20041;-75
2022/04/18 00:40:06;;;;;;;4.72;3.15;;;;;;;7.58;100.00;101061.81;5032518;28;20044;-75
2022/04/18 00:42:51;;;;;;;3.50;2.80;;;;;;;7.51;100.00;101055.72;5032231;28;20044;-75
2022/04/18 00:45:37;;;;;;;5.82;3.17;;;;;;;7.32;100.00;101046.16;5032156;28;20041;-75
2022/04/18 00:48:23;;;;;;;4.55;2.90;;;;;;;7.20;100.00;101050.50;5032873;28;20048;-75
2022/04/18 00:51:14;;;;;;;3.58;3.00;;;;;;;7.40;100.00;101052.25;5032594;28;20104;-76
2022/04/18 00:54:00;;;;;;;3.92;3.15;;;;;;;7.41;100.00;101043.56;5032518;28;20039;-75
2022/04/18 00:56:46;;;;;;;3.42;2.85;;;;;;;7.28;100.00;101041.81;5033026;28;20573;-76
2022/04/18 00:59:32;;;;;;;4.10;3.42;;;;;;;7.66;100.00;101041.81;5032867;28;20036;-75
2022/04/18 01:02:17;;;;;;;4.72;3.58;;;;;;;7.53;100.00;101047.91;5032870;28;20032;-74
2022/04/18 01:05:04;;;;;;;10.38;3.33;;;;;;;7.58;100.00;101039.22;5032004;28;20445;-75
2022/04/18 01:07:50;;;;;;;5.07;3.05;;;;;;;7.32;100.00;101042.69;5032464;28;20037;-75
2022/04/18 01:10:37;;;;;;;3.83;2.95;;;;;;;7.71;100.00;101038.34;5031951;28;20025;-75
2022/04/18 01:13:23;;;;;;;4.60;3.03;;;;;;;7.68;100.00;101035.72;5032296;28;20025;-75
2022/04/18 01:16:09;;;;;;;3.92;3.25;;;;;;;7.65;100.00;101038.34;5047403;28;20040;-73
2022/04/18 01:18:57;;;;;;;4.35;3.28;;;;;;;7.63;100.00;101031.41;5033590;28;20068;-74
2022/04/18 01:21:43;;;;;;;4.32;3.38;;;;;;;7.75;100.00;101031.38;5034856;28;20327;-75
2022/04/18 01:30:39;;;;;;;3.47;3.15;;;;;;;7.65;100.00;101025.31;5036391;28;20035;-75
2022/04/18 01:33:26;;;;;;;4.72;3.25;;;;;;;7.48;100.00;101020.97;5035605;28;20059;-74
2022/04/18 01:36:11;;;;;;;4.72;3.75;;;;;;;7.43;100.00;101025.34;5035960;28;20017;-74
2022/04/18 01:38:58;;;;;;;4.40;3.63;;;;;;;7.61;100.00;101025.31;5034972;28;20029;-75
2022/04/18 01:41:43;;;;;;;6.22;3.60;;;;;;;7.35;100.00;101017.50;5036195;28;20026;-76
2022/04/18 01:44:29;;;;;;;4.05;3.47;;;;;;;7.62;100.00;101006.19;5034941;28;20029;-75
2022/04/18 01:47:15;;;;;;;5.05;3.17;;;;;;;7.57;100.00;101008.81;5035329;28;20061;-75
2022/04/18 01:50:01;;;;;;;6.20;3.60;;;;;;;7.78;100.00;101003.56;5036144;28;20036;-75
2022/04/18 01:52:46;;;;;;;4.30;3.50;;;;;;;7.64;100.00;101004.47;5035045;28;20026;-74
2022/04/18 01:55:32;;;;;;;4.95;4.00;;;;;;;7.84;100.00;101002.69;5036165;28;20021;-75
2022/04/18 01:58:18;;;;;;;4.35;3.60;;;;;;;7.85;100.00;100989.66;5036278;28;20034;-75
2022/04/18 02:01:04;;;;;;;6.18;3.58;;;;;;;7.57;100.00;100985.34;5035002;28;20180;-76
2022/04/18 02:03:49;;;;;;;6.10;3.97;;;;;;;7.61;100.00;100988.81;5035178;28;20082;-75
2022/04/18 02:06:35;;;;;;;5.03;3.72;;;;;;;7.70;100.00;100978.34;5035733;28;20450;-75
2022/04/18 02:09:21;;;;;;;6.90;4.40;;;;;;;7.82;100.00;100973.13;5036219;28;20405;-76
2022/04/18 02:12:07;;;;;;;4.90;4.10;;;;;;;7.86;100.00;100980.06;5035281;28;20033;-75
2022/04/18 02:14:53;;;;;;;5.20;3.55;;;;;;;7.98;100.00;100975.69;5035176;28;20397;-75
2022/04/18 02:17:39;;;;;;;4.88;3.60;;;;;;;7.76;100.00;100973.16;5034690;28;20033;-75
2022/04/18 02:20:24;;;;;;;4.40;3.10;;;;;;;7.75;100.00;100971.38;5035033;28;20029;-75
2022/04/18 02:23:10;;;;;;;4.53;3.42;;;;;;;7.62;100.00;100967.94;5033925;28;20469;-75
2022/04/18 02:25:56;;;;;;;4.18;3.10;;;;;;;7.48;100.00;100974.91;5034929;28;20060;-76
2022/04/18 02:28:42;;;;;;;3.88;3.00;;;;;;;7.48;100.00;100961.03;5035248;28;20022;-75
2022/04/18 02:31:28;;;;;;;4.30;3.08;;;;;;;7.80;100.00;100954.84;5034316;28;20108;-75
2022/04/18 02:34:13;;;;;;;4.30;3.30;;;;;;;7.56;100.00;100948.84;5033568;28;20061;-75
2022/04/18 02:36:59;;;;;;;4.50;3.13;;;;;;;7.48;100.00;100946.22;5033978;28;20030;-75
2022/04/18 02:39:46;;;;;;;3.90;3.10;;;;;;;7.24;100.00;100941.03;5033687;28;20025;-76
2022/04/18 02:42:32;;;;;;;4.35;3.55;;;;;;;7.13;100.00;100948.03;5033658;28;20026;-75
2022/04/18 02:45:19;;;;;;;4.90;3.10;;;;;;;7.18;100.00;100948.00;5034727;28;20083;-76
2022/04/18 02:48:05;;;;;;;5.38;3.28;;;;;;;7.17;100.00;100954.09;5034282;28;20056;-75
2022/04/18 02:50:51;;;;;;;5.72;3.25;;;;;;;7.10;100.00;100945.41;5033715;28;20082;-75
2022/04/18 02:53:37;;;;;;;4.43;2.90;;;;;;;7.21;100.00;100945.41;5033778;28;20036;-75
2022/04/18 02:56:23;;;;;;;4.90;2.72;;;;;;;7.10;100.00;100945.41;5034279;28;20120;-75
2022/04/18 02:59:09;;;;;;;4.57;3.20;;;;;;;7.22;100.00;100937.59;5034176;28;20021;-76
2022/04/18 03:01:54;;;;;;;3.00;2.65;;;;;;;7.37;100.00;100947.13;5035072;28;20022;-76
2022/04/18 03:04:40;;;;;;;4.20;3.20;;;;;;;7.18;100.00;100961.03;5033003;28;20099;-75
2022/04/18 03:07:26;;;;;;;4.05;2.75;;;;;;;7.12;100.00;100959.28;5033416;28;20037;-77
2022/04/18 03:10:12;;;;;;;3.80;2.90;;;;;;;7.10;100.00;100967.97;5032799;28;20339;-76
2022/04/18 03:12:57;;;;;;;3.88;3.05;;;;;;;7.05;100.00;100967.09;5033278;28;20490;-74
2022/04/18 03:15:43;;;;;;;4.78;3.70;;;;;;;7.08;100.00;100964.50;5033945;28;20372;-77
2022/04/18 03:18:29;;;;;;;3.83;3.00;;;;;;;7.14;100.00;100960.16;5033529;28;20032;-75
2022/04/18 03:21:16;;;;;;;5.55;3.72;;;;;;;6.93;100.00;100960.16;5033690;28;20025;-75
2022/04/18 03:24:02;;;;;;;4.18;3.20;;;;;;;7.00;100.00;100968.84;5033601;28;20052;-75
2022/04/18 03:26:48;;;;;;;5.03;3.08;;;;;;;6.99;100.00;100964.50;5033390;28;20053;-75
2022/04/18 03:29:33;;;;;;;4.70;3.53;;;;;;;7.08;100.00;100967.97;5033451;28;20423;-76
2022/04/18 03:32:19;;;;;;;4.45;3.50;;;;;;;7.22;100.00;100965.38;5034392;28;20124;-77
2022/04/18 03:35:05;;;;;;;4.55;3.45;;;;;;;7.23;100.00;100967.13;5032615;28;20037;-76
2022/04/18 03:40:55;;;;;;;6.57;3.70;;;;;;;7.06;100.00;100974.91;5045868;28;20103;-75
2022/04/18 03:43:41;;;;;;;5.25;3.65;;;;;;;7.20;100.00;100980.16;5034600;28;20064;-75
2022/04/18 03:46:26;;;;;;;8.02;3.90;;;;;;;7.09;100.00;100972.34;5032600;28;20049;-76
2022/04/18 03:49:12;;;;;;;6.53;4.70;;;;;;;6.99;100.00;100985.34;5033304;28;20064;-76
2022/04/18 03:51:58;;;;;;;5.80;4.70;;;;;;;7.31;100.00;100978.41;5032610;28;20437;-76
2022/04/18 03:54:44;;;;;;;4.82;4.10;;;;;;;7.05;100.00;100977.53;5033850;28;20112;-77
2022/04/18 03:57:30;;;;;;;5.15;3.42;;;;;;;7.10;100.00;100978.38;5032277;28;20076;-77
2022/04/18 04:00:17;;;;;;;5.00;3.65;;;;;;;7.16;100.00;100983.63;5033310;28;20034;-75
2022/04/18 04:03:03;;;;;;;4.97;3.50;;;;;;;7.28;100.00;100983.63;5033011;28;20036;-76
2022/04/18 04:05:48;;;;;;;4.10;3.30;;;;;;;7.15;100.00;100981.88;5033564;28;20021;-76
2022/04/18 04:08:34;;;;;;;3.67;2.72;;;;;;;7.28;100.00;100988.84;5033548;28;20055;-76
2022/04/18 04:11:21;;;;;;;3.67;2.75;;;;;;;7.12;100.00;100981.88;5032664;28;20060;-76
2022/04/18 04:14:07;;;;;;;4.20;2.90;;;;;;;7.16;100.00;100971.44;5033540;28;20040;-76
2022/04/18 04:16:53;;;;;;;3.50;2.70;;;;;;;7.02;100.00;100974.91;5032682;28;20109;-76
2022/04/18 04:19:38;;;;;;;3.22;2.78;;;;;;;6.98;100.00;100974.03;5032310;28;20021;-77
2022/04/18 04:22:24;;;;;;;4.15;3.10;;;;;;;6.83;100.00;100975.78;5032583;28;20108;-77
2022/04/18 04:25:10;;;;;;;6.65;3.28;;;;;;;7.09;100.00;100976.66;5032538;28;20401;-75
2022/04/18 04:27:56;;;;;;;4.85;2.97;;;;;;;7.34;100.00;100976.66;5032810;28;20029;-76
2022/04/18 04:30:41;;;;;;;5.95;3.97;;;;;;;7.22;100.00;100984.47;5032513;28;20434;-76
2022/04/18 04:33:30;;;;;;;4.78;3.40;;;;;;;7.12;100.00;100963.66;5032772;28;20029;-79
2022/04/18 04:36:17;;;;;;;5.93;3.55;;;;;;;7.08;100.00;100964.50;5032536;28;20033;-76
2022/04/18 04:39:03;;;;;;;5.60;4.05;;;;;;;7.39;100.00;100971.47;5033318;28;20029;-76
2022/04/18 04:41:48;;;;;;;6.10;4.35;;;;;;;7.36;100.00;100966.25;5033652;28;20017;-76
2022/04/18 04:44:34;;;;;;;5.30;3.83;;;;;;;7.22;100.00;100966.25;5032848;28;20033;-76
2022/04/18 04:47:20;;;;;;;6.03;4.60;;;;;;;7.19;100.00;100962.78;5031998;28;20119;-76
2022/04/18 04:50:06;;;;;;;5.03;4.25;;;;;;;7.39;100.00;100961.88;5033140;28;20062;-78
2022/04/18 04:52:52;;;;;;;5.85;4.65;;;;;;;7.44;100.00;100956.69;5031721;28;20139;-78
2022/04/18 04:55:38;;;;;;;5.13;4.22;;;;;;;7.27;100.00;100953.22;5033593;28;20128;-77
2022/04/18 04:58:24;;;;;;;5.95;4.65;;;;;;;7.26;100.00;100952.34;5036110;28;20148;-77
2022/04/18 05:01:10;;;;;;;6.97;4.40;;;;;;;7.40;100.00;100955.78;5035969;28;20362;-77
2022/04/18 05:03:55;;;;;;;6.78;4.75;;;;;;;7.65;100.00;100967.06;5035639;28;20030;-75
2022/04/18 05:06:41;;;;;;;5.57;4.07;;;;;;;7.49;100.00;100963.63;5036196;28;20051;-74
2022/04/18 05:09:27;;;;;;;5.28;3.75;;;;;;;7.49;100.00;100954.94;5036554;28;20057;-77
2022/04/18 05:12:13;;;;;;;4.00;3.17;;;;;;;7.58;100.00;100962.72;5036164;28;20091;-76
2022/04/18 05:15:05;;;;;;;5.65;4.15;;;;;;;7.83;100.00;100959.19;5037372;28;20033;-75
2022/04/18 05:17:51;;;;;;;5.30;3.55;;;;;;;7.84;100.00;100961.81;5037386;28;20362;-75
2022/04/18 05:20:37;;;;;;;5.65;3.88;;;;;;;8.09;100.00;100957.38;5036412;28;20041;-76
2022/04/18 05:23:23;;;;;;;6.30;4.72;;;;;;;7.90;100.00;100964.41;5035927;28;20488;-75
2022/04/18 05:26:09;;;;;;;9.25;7.00;;;;;;;8.11;100.00;100961.72;5036674;28;20021;-77
2022/04/18 05:28:54;;;;;;;8.70;7.07;;;;;;;7.67;100.00;100963.59;5035660;28;20088;-77
2022/04/18 05:31:40;;;;;;;8.65;6.72;;;;;;;7.58;100.00;100968.81;5036513;28;20067;-76
2022/04/18 05:34:26;;;;;;;9.20;6.93;;;;;;;7.93;100.00;100963.53;5036296;28;20450;-75
2022/04/18 05:37:12;;;;;;;9.45;7.47;;;;;;;8.13;100.00;100959.13;5035584;28;20036;-78
2022/04/18 05:39:57;;;;;;;9.43;7.13;;;;;;;7.82;100.00;100957.47;5035604;28;20021;-76
2022/04/18 05:42:43;;;;;;;8.98;7.82;;;;;;;8.12;100.00;100954.78;5036264;28;20500;-76
2022/04/18 05:45:29;;;;;;;10.10;8.38;;;;;;;8.12;100.00;100960.00;5036034;28;20374;-77
2022/04/18 05:48:15;;;;;;;9.23;7.60;;;;;;;8.30;100.00;100960.81;5036147;28;20045;-76
2022/04/18 05:51:00;;;;;;;9.35;7.43;;;;;;;8.37;100.00;100954.66;5035914;28;20176;-75
2022/04/18 05:53:46;;;;;;;9.15;7.43;;;;;;;8.13;100.00;100953.91;5035589;28;20052;-76
2022/04/18 05:56:32;;;;;;;12.40;7.95;;;;;;;8.00;100.00;100957.44;5035173;28;20025;-77
2022/04/18 05:59:18;;;;;;;10.30;7.45;;;;;;;8.17;100.00;100959.13;5035062;28;20508;-77
2022/04/18 06:02:04;;;;;;;8.68;7.00;;;;;;;8.33;100.00;100958.16;5039803;28;20030;-75
2022/04/18 06:04:49;;;;;;;7.95;6.45;;;;;;;8.51;100.00;100954.59;5047911;28;20051;-76
2022/04/18 06:07:35;;;;;;;6.78;6.07;;;;;;;8.61;100.00;100954.53;5034624;28;20104;-76
2022/04/18 06:10:24;;;;;;;7.10;6.00;;;;;;;8.91;100.00;100950.88;5035102;28;20120;-76
2022/04/18 06:13:10;;;;;;;8.18;5.75;;;;;;;8.46;100.00;100954.66;5035430;28;20033;-76
2022/04/18 06:15:56;;;;;;;6.32;5.35;;;;;;;8.46;100.00;100954.66;5034462;28;20030;-75
2022/04/18 06:18:41;;;;;;;7.28;5.72;;;;;;;8.55;100.00;100956.31;5035469;28;20033;-76
2022/04/18 06:21:27;;;;;;;8.35;6.25;;;;;;;8.72;100.00;100954.50;5034860;28;20022;-76
2022/04/18 06:24:13;;;;;;;10.07;6.13;;;;;;;8.87;100.00;100963.09;5035051;28;20037;-76
2022/04/18 06:26:58;;;;;;;8.13;5.60;;;;;;;8.66;100.00;100972.81;5034266;28;20036;-76
2022/04/18 06:29:44;;;;;;;8.80;6.82;;;;;;;8.53;100.00;100971.16;5035140;28;20034;-75
2022/04/18 06:32:35;;;;;;;7.40;6.22;;;;;;;8.84;100.00;100970.09;5035749;28;20045;-76
2022/04/18 06:35:21;;;;;;;7.13;5.95;;;;;;;8.77;100.00;100971.00;5033990;28;20032;-76
2022/04/18 06:38:07;;;;;;;6.60;5.70;;;;;;;8.97;100.00;100975.22;5034496;28;20033;-76
2022/04/18 06:40:52;;;;;;;7.72;5.28;;;;;;;8.74;100.00;100974.50;5033902;28;20017;-76
2022/04/18 06:43:38;;;;;;;6.45;5.05;;;;;;;9.12;100.00;100972.50;5035271;28;20113;-77
2022/04/18 06:46:24;;;;;;;6.05;5.20;;;;;;;9.69;100.00;100968.53;5034337;28;20071;-75
2022/04/18 06:49:10;;;;;;;8.85;5.47;;;;;;;9.97;100.00;100978.66;5035059;28;20072;-75
2022/04/18 06:51:55;;;;;;;7.10;4.90;;;;;;;9.59;100.00;100967.75;5033952;28;20030;-75
2022/04/18 06:54:44;;;;;;;6.82;4.00;;;;;;;9.57;100.00;100971.25;5033878;28;20442;-77
2022/04/18 06:57:30;;;;;;;8.02;5.20;;;;;;;10.20;100.00;100970.59;5034140;28;20028;-76
2022/04/18 07:00:16;;;;;;;7.43;4.63;;;;;;;10.15;100.00;100977.63;5034512;28;20048;-76
2022/04/18 07:03:01;;;;;;;5.55;3.70;;;;;;;9.64;100.00;100976.41;5034196;28;20449;-76
2022/04/18 07:05:48;;;;;;;4.38;3.58;;;;;;;9.84;100.00;100971.84;5034557;28;20033;-77
2022/04/18 07:08:33;;;;;;;3.53;3.05;;;;;;;10.09;100.00;100970.72;5034812;28;20030;-76
2022/04/18 07:11:19;;;;;;;7.15;3.40;;;;;;;10.03;100.00;100975.13;5033773;28;20110;-77
2022/04/18 07:14:05;;;;;;;4.07;3.33;;;;;;;9.69;100.00;100973.75;5033479;28;20438;-76
2022/04/18 07:16:52;;;;;;;4.68;3.50;;;;;;;10.16;100.00;100968.88;5032972;28;20037;-78
2022/04/18 07:19:38;;;;;;;5.82;3.80;;;;;;;9.70;100.00;100968.47;5034708;28;20099;-76
2022/04/18 07:22:24;;;;;;;5.63;3.58;;;;;;;10.59;100.00;100977.06;5033470;28;20025;-77
2022/04/18 07:25:10;;;;;;;4.35;3.63;;;;;;;10.68;99.52;100969.09;5033916;28;20025;-76
2022/04/18 07:27:56;;;;;;;5.20;3.80;;;;;;;10.90;98.17;100970.50;5033706;28;20095;-77
2022/04/18 07:30:41;;;;;;;4.55;3.60;;;;;;;10.23;96.64;100974.91;5034187;28;20033;-76
2022/04/18 07:33:27;;;;;;;7.47;3.75;;;;;;;10.18;100.00;100963.63;5033852;28;20082;-78
2022/04/18 07:36:13;;;;;;;5.93;4.60;;;;;;;10.44;100.00;100970.28;5033688;28;20029;-76
2022/04/18 07:38:59;;;;;;;5.18;4.03;;;;;;;10.65;100.00;100966.53;5033803;28;20473;-77
2022/04/18 07:41:45;;;;;;;6.22;3.70;;;;;;;9.95;100.00;100966.47;5033294;28;20061;-76
2022/04/18 07:44:31;;;;;;;8.68;4.32;;;;;;;10.53;100.00;100966.69;5033221;28;20025;-76
2022/04/18 07:47:17;;;;;;;5.07;4.18;;;;;;;10.62;98.32;100972.69;5033682;28;20053;-76
2022/04/18 07:50:03;;;;;;;7.13;4.70;;;;;;;10.68;100.00;100969.94;5033957;28;20458;-76
2022/04/18 07:52:49;;;;;;;8.45;4.22;;;;;;;9.95;100.00;100961.25;5033744;28;20109;-77
2022/04/18 07:55:34;;;;;;;5.90;4.10;;;;;;;10.41;100.00;100969.47;5036885;28;20136;-76
2022/04/18 07:58:20;;;;;;;10.02;4.93;;;;;;;10.52;100.00;100965.81;5033577;28;20450;-76
2022/04/18 08:01:06;;;;;;;7.47;4.78;;;;;;;10.79;100.00;100954.94;5032595;28;20036;-78
2022/04/18 08:03:52;;;;;;;6.90;4.97;;;;;;;10.70;100.00;100964.69;5032486;28;20116;-76
2022/04/18 08:06:38;;;;;;;6.95;4.60;;;;;;;10.62;100.00;100956.94;5033406;28;20048;-77
2022/04/18 08:09:23;;;;;;;6.65;4.90;;;;;;;10.70;100.00;100962.06;5033049;28;20052;-76
2022/04/18 08:12:12;;;;;;;6.35;4.68;;;;;;;10.37;100.00;100963.38;5032896;28;20038;-76
2022/04/18 08:14:57;;;;;;;7.35;5.00;;;;;;;10.89;100.00;100958.31;5032967;28;20021;-76
2022/04/18 08:17:43;;;;;;;5.82;4.22;;;;;;;11.20;100.00;100957.78;5033575;28;20025;-77
2022/04/18 08:20:29;;;;;;;4.57;3.58;;;;;;;10.72;90.60;100962.94;5033504;28;20025;-78
2022/04/18 08:23:16;;;;;;;4.97;3.35;;;;;;;11.33;95.07;100968.97;5032618;28;20034;-78
2022/04/18 08:26:05;;;;;;;5.15;4.00;;;;;;;10.81;95.94;100968.88;5033001;28;20067;-76
2022/04/18 08:28:51;;;;;;;7.10;4.00;;;;;;;10.83;98.57;100967.13;5034283;28;20124;-76
2022/04/18 08:31:40;;;;;;;7.20;4.60;;;;;;;11.31;86.70;100966.38;5047476;28;20025;-77
2022/04/18 08:34:25;;;;;;;7.85;4.75;;;;;;;11.21;83.36;100961.28;5033255;28;20040;-76
2022/04/18 08:37:11;;;;;;;9.80;2.30;;;;;;;11.17;74.53;100949.13;5033405;28;20033;-77
2022/04/18 08:39:57;;;;;;;8.40;4.10;;;;;;;11.27;73.06;100945.44;5033314;28;20029;-77
2022/04/18 08:42:43;;;;;;;5.50;1.98;;;;;;;10.66;72.71;100955.13;5032844;28;20044;-78
2022/04/18 08:45:29;;;;;;;7.60;2.45;;;;;;;10.48;73.43;100958.03;5032341;28;20033;-77
2022/04/18 08:54:28;;;;;;;9.60;5.05;;;;;;;10.40;86.76;100960.72;5033143;28;20097;-76
2022/04/18 08:57:14;;;;;;;7.07;4.22;;;;;;;10.51;88.12;100963.19;5032505;28;20025;-77
2022/04/18 09:00:00;;;;;;;17.15;6.88;;;;;;;9.99;99.41;100952.47;5032163;28;20033;-76
2022/04/18 09:02:46;;;;;;;4.82;3.83;;;;;;;9.91;95.12;100968.28;5032895;28;20028;-77
2022/04/18 09:05:36;;;;;;;8.10;4.22;;;;;;;10.49;93.85;100965.84;5031795;28;20532;-77
2022/04/18 09:08:22;;;;;;;5.30;3.70;;;;;;;10.65;88.05;100964.75;5032815;28;20033;-78
2022/04/18 09:11:08;;;;;;;4.97;3.58;;;;;;;10.95;86.15;100963.44;5034728;28;20034;-77
2022/04/18 09:14:06;;;;;;;5.10;4.00;;;;;;;10.59;91.67;100956.09;5032306;28;20091;-76
2022/04/18 09:16:52;;;;;;;8.95;4.07;;;;;;;10.72;86.97;100958.53;5032365;28;20116;-77
2022/04/18 09:19:37;;;;;;;4.15;2.88;;;;;;;9.53;81.83;100965.16;5033122;28;20029;-76
2022/04/18 09:22:24;;;;;;;6.13;3.38;;;;;;;10.00;86.19;100968.16;5032109;28;20021;-77
2022/04/18 09:25:13;;;;;;;6.40;3.60;;;;;;;10.22;88.37;100954.84;5033882;28;20040;-76
2022/04/18 09:27:59;;;;;;;5.57;2.78;;;;;;;10.14;85.22;100960.19;5032043;28;20108;-76
2022/04/18 09:30:55;;;;;;;4.18;2.70;;;;;;;10.11;82.21;100968.06;5031820;28;20445;-77
2022/04/18 09:33:46;;;;;;;4.03;2.80;;;;;;;10.35;83.19;100966.91;5031920;28;20110;-76
2022/04/18 09:36:31;;;;;;;5.35;2.70;;;;;;;9.90;81.75;100965.69;5032639;28;20029;-78
2022/04/18 09:39:24;;;;;;;10.23;3.22;;;;;;;10.13;81.70;100964.56;5032277;28;20025;-77
2022/04/18 09:42:11;;;;;;;10.13;3.10;;;;;;;10.49;79.84;100968.47;5032603;28;20347;-77
2022/04/18 09:44:57;;;;;;;4.32;3.13;;;;;;;10.59;76.67;100969.22;5035821;28;20072;-76
2022/04/18 09:47:43;;;;;;;4.35;3.00;;;;;;;10.35;74.19;100975.63;5035320;28;20053;-77
2022/04/18 09:53:38;;;;;;;4.82;3.25;;;;;;;11.15;70.02;100964.88;5035470;28;20025;-77
2022/04/18 09:56:26;;;;;;;4.97;3.47;;;;;;;11.62;67.23;100969.38;5035187;28;20036;-78
2022/04/18 09:59:14;;;;;;;5.05;3.05;;;;;;;11.43;68.70;100967.91;5034789;28;20026;-76
2022/04/18 10:02:00;;;;;;;5.95;3.47;;;;;;;11.58;67.40;100965.88;5035110;28;20343;-76
2022/04/18 10:04:50;;;;;;;4.38;2.70;;;;;;;11.28;68.64;100962.91;5035153;28;20037;-77
2022/04/18 10:07:37;;;;;;;7.30;3.13;;;;;;;11.51;67.39;100960.78;5035775;28;20022;-77
2022/04/18 10:10:24;;;;;;;5.68;3.20;;;;;;;12.02;69.96;100955.44;5035219;28;20145;-76
2022/04/18 10:13:10;;;;;;;4.50;3.42;;;;;;;12.18;66.48;100962.13;5035821;28;20041;-78
2022/04/18 10:16:01;;;;;;;6.47;3.50;;;;;;;12.45;67.53;100961.56;5034255;28;20037;-77
2022/04/18 10:18:52;;;;;;;4.88;3.60;;;;;;;12.21;64.81;100948.94;5036159;28;20029;-77
2022/04/18 10:21:44;;;;;;;3.97;3.47;;;;;;;11.81;64.96;100955.88;5035646;28;20033;-78
2022/04/18 10:25:04;;;;;;;6.32;3.55;;;;;;;11.89;66.47;100951.34;5035527;28;20402;-78
2022/04/18 10:28:01;;;;;;;6.18;3.10;;;;;;;12.27;65.66;100953.22;5034875;28;20112;-78
2022/04/18 10:34:13;;;;;;;4.13;2.83;;;;;;;11.56;62.81;100964.16;5071426;23;20366;-77
2022/04/18 10:37:02;;;;;;;6.03;3.00;;;;;;;12.25;62.69;100950.63;5076029;28;20138;-77
2022/04/18 10:39:59;;;;;;;3.92;2.63;;;;;;;11.31;63.83;100949.75;5074442;28;20031;-76
2022/04/18 10:42:45;;;;;;;8.10;3.00;;;;;;;12.11;66.77;100955.28;5078639;28;20352;-73
2022/04/18 10:45:31;;;;;;;4.15;2.58;;;;;;;11.45;61.83;100956.50;5095390;28;20070;-76
2022/04/18 10:48:17;;;;;;;3.58;2.35;;;;;;;10.43;63.90;100960.69;5081102;28;20038;-76
2022/04/18 10:51:29;;;;;;;3.63;2.40;;;;;;;10.92;65.69;100951.25;5080947;28;20059;-70
2022/04/18 10:54:23;;;;;;;3.15;2.38;;;;;;;11.42;64.37;100953.94;5100673;28;20039;-78
2022/04/18 10:57:12;;;;;;;3.60;2.35;;;;;;;11.57;63.20;100948.41;5101904;28;20118;-76
2022/04/18 10:59:58;;;;;;;3.22;2.00;;;;;;;11.03;66.04;100948.47;5095434;28;20038;-78
2022/04/18 11:02:49;;;;;;;3.28;2.20;;;;;;;11.16;65.38;100943.00;5094525;28;20023;-77
2022/04/18 11:05:38;;;;;;;4.57;2.80;;;;;;;12.05;66.13;100937.00;5094630;28;20451;-77
2022/04/18 11:08:25;;;;;;;3.20;2.63;;;;;;;11.52;64.13;100934.50;5096195;28;20028;-69
2022/04/18 11:11:17;;;;;;;5.38;2.97;;;;;;;12.34;64.45;100936.44;5080493;28;20042;-77
2022/04/18 11:14:23;;;;;;;3.53;2.67;;;;;;;11.75;63.29;100937.63;5095155;28;20024;-76
2022/04/18 11:17:11;;;;;;;8.43;3.28;;;;;;;13.01;63.35;100928.78;5079710;28;20043;-77
2022/04/18 11:20:17;;;;;;;6.50;2.80;;;;;;;13.16;61.74;100934.53;5095020;28;20364;-76
2022/04/18 11:23:23;;;;;;;6.78;2.92;;;;;;;12.65;60.85;100935.72;5080471;28;20173;-79
2022/04/18 11:26:12;;;;;;;5.05;3.03;;;;;;;12.43;60.41;100942.38;5094550;28;20035;-78
2022/04/18 11:28:58;;;;;;;3.80;3.10;;;;;;;11.81;62.57;100942.75;5079537;28;20031;-76
2022/04/18 11:31:44;;;;;;;4.28;3.30;;;;;;;11.75;62.10;100935.00;5079437;28;20062;-77
2022/04/18 11:34:31;;;;;;;3.40;2.60;;;;;;;12.27;59.82;100938.31;5093899;28;20105;-77
2022/04/18 11:37:26;;;;;;;2.95;2.63;;;;;;;11.98;60.27;100929.31;5094449;28;20115;-81
2022/04/18 11:40:17;;;;;;;5.05;3.10;;;;;;;12.74;61.04;100926.78;5093426;28;20058;-77
2022/04/18 11:43:10;;;;;;;6.85;3.03;;;;;;;13.09;60.41;100917.19;5079988;28;20056;-77
2022/04/18 11:46:04;;;;;;;4.43;2.80;;;;;;;13.54;59.11;100917.75;5093551;28;20032;-75
2022/04/18 11:48:53;;;;;;;9.25;4.57;;;;;;;13.22;63.08;100915.97;5079449;28;20032;-77
2022/04/18 11:51:41;;;;;;;5.03;2.75;;;;;;;12.71;62.24;100917.19;5093827;28;20090;-79
2022/04/18 11:54:27;;;;;;;4.97;2.38;;;;;;;12.04;60.48;100921.28;5094269;28;20028;-79
2022/04/18 11:57:15;;;;;;;6.22;4.30;;;;;;;11.99;62.70;100916.16;5094005;28;20092;-79
2022/04/18 12:00:08;;;;;;;5.40;3.10;;;;;;;12.54;61.01;100914.06;5094036;28;20111;-79
2022/04/18 12:09:11;;;;;;;4.68;2.67;;;;;;;12.97;60.61;100906.03;5094418;28;20032;-79
2022/04/18 12:11:58;;;;;;;5.57;2.80;;;;;;;12.57;59.71;100911.38;5093982;28;20028;-78
2022/04/18 12:14:46;;;;;;;4.05;2.63;;;;;;;12.69;61.85;100902.34;5093596;28;20028;-78
2022/04/18 12:17:33;;;;;;;4.93;2.97;;;;;;;12.88;61.48;100899.25;5093083;28;20020;-76
2022/04/18 12:20:19;;;;;;;7.35;2.70;;;;;;;13.02;55.47;100901.59;5093130;28;20042;-78
2022/04/18 12:23:04;;;;;;;3.83;2.60;;;;;;;12.78;56.57;100897.72;5093511;28;20043;-80
2022/04/18 12:25:52;;;;;;;3.75;2.40;;;;;;;12.22;55.30;100897.28;5093222;28;20024;-79
2022/04/18 12:28:38;;;;;;;3.70;2.65;;;;;;;12.37;56.13;100894.31;5078302;28;20464;-78
2022/04/18 12:31:24;;;;;;;4.88;2.22;;;;;;;12.32;57.29;100899.69;5093766;28;20024;-79
2022/04/18 12:34:20;;;;;;;2.92;2.63;;;;;;;12.68;56.74;100893.59;5092714;28;20082;-80
2022/04/18 12:37:12;;;;;;;4.55;2.53;;;;;;;12.71;59.23;100883.03;5093674;28;20063;-78
2022/04/18 12:40:12;;;;;;;3.80;2.90;;;;;;;11.93;58.47;100894.41;5093223;28;20043;-79
2022/04/18 12:43:05;;;;;;;4.60;2.53;;;;;;;11.95;58.51;100890.84;5093943;28;20024;-78
2022/04/18 12:45:52;;;;;;;3.42;2.42;;;;;;;12.63;57.99;100884.97;5079723;28;20035;-78
2022/04/18 12:48:39;;;;;;;5.38;3.03;;;;;;;13.14;57.25;100881.09;5078963;28;20364;-81
2022/04/18 12:51:42;;;;;;;7.60;5.40;;;;;;;12.61;56.72;100885.88;5092761;28;20424;-78
2022/04/18 12:54:27;;;;;;;9.35;3.33;;;;;;;12.85;59.36;100880.91;5093172;28;20027;-78
2022/04/18 12:57:20;;;;;;;9.93;3.25;;;;;;;13.50;58.59;100872.25;5092531;28;20111;-80
2022/04/18 13:00:14;;;;;;;11.85;2.75;;;;;;;13.12;57.71;100872.38;5078274;28;20476;-79
2022/04/18 13:03:05;;;;;;;6.82;2.42;;;;;;;13.21;54.22;100872.16;5078569;28;20032;-77
2022/04/18 13:05:51;;;;;;;4.15;1.98;;;;;;;12.90;56.02;100867.66;5093742;28;20102;-80
2022/04/18 13:08:38;;;;;;;7.25;2.50;;;;;;;12.67;57.20;100872.59;5093063;28;20364;-80
2022/04/18 13:11:38;;;;;;;4.10;2.20;;;;;;;12.13;57.06;100877.31;5093279;28;20028;-78
2022/04/18 13:14:24;;;;;;;3.00;1.98;;;;;;;11.95;57.52;100876.84;5078599;28;20028;-78
2022/04/18 13:17:10;;;;;;;3.55;2.38;;;;;;;12.25;57.34;100884.94;5094166;28;20027;-79
2022/04/18 13:20:01;;;;;;;3.58;2.40;;;;;;;12.78;57.61;100868.81;5083692;28;20348;-77
2022/04/18 13:22:46;;;;;;;4.85;2.50;;;;;;;12.46;57.03;100870.47;5083532;28;20062;-78
2022/04/18 13:25:33;;;;;;;5.95;2.65;;;;;;;12.83;57.43;100871.34;5114370;28;20024;-75